Terminal Aerodrome Forecast
Issued by NWS

Home | Current Version | Previous Version | Text Only | Print | Product List | Glossary On
Versions: 1 2 3 4 5 6 7 8 9 10 11 12 13 14 15
961
FTUS44 KLIX 181306 AAA
TAFGPT
TAF AMD
KGPT 181306Z 1813/1912 00000KT 4SM -RA BR SCT007 BKN012 OVC018
      TEMPO 1813/1816 2SM SHRA BR BKN003
     FM181600 01004KT 5SM -SHRA BR BKN003
     FM181900 08004KT P6SM VCSH BKN005
     FM190400 VRB03KT 3SM BR BKN003=

USA.gov is the U.S. government's official web portal to all federal, state and local government web resources and services.